createdAt,value
2018-12-26T00:02:28.432Z,100241.17
2018-12-26T00:04:58.106Z,100235.22
2018-12-26T00:07:27.798Z,100236.28
2018-12-26T00:09:57.437Z,100235.69
2018-12-26T00:12:27.123Z,100232.12
2018-12-26T00:14:56.780Z,100229.28
2018-12-26T00:17:26.368Z,100228.42
2018-12-26T00:20:14.994Z,100231.58
2018-12-26T00:22:44.521Z,100224.98
2018-12-26T00:25:14.203Z,100224.80
2018-12-26T00:27:43.875Z,100215.38
2018-12-26T00:30:14.297Z,100222.34
2018-12-26T00:32:43.752Z,100227.66
2018-12-26T00:35:13.284Z,100218.47
2018-12-26T00:37:42.867Z,100218.00
2018-12-26T00:40:12.467Z,100220.52
2018-12-26T00:42:41.925Z,100215.17
2018-12-26T00:45:11.507Z,100216.16
2018-12-26T00:47:41.078Z,100217.47
2018-12-26T00:50:10.625Z,100220.84
2018-12-26T00:52:40.216Z,100223.34
2018-12-26T00:55:09.829Z,100222.58
2018-12-26T00:57:39.428Z,100235.51
2018-12-26T01:00:28.372Z,100222.15
2018-12-26T01:02:57.993Z,100218.62
2018-12-26T01:05:27.530Z,100218.28
2018-12-26T01:07:57.295Z,100209.23
2018-12-26T01:10:45.739Z,100208.31
2018-12-26T01:13:15.295Z,100229.38
2018-12-26T01:15:44.828Z,100206.06
2018-12-26T01:18:14.398Z,100204.48
2018-12-26T01:20:44.254Z,100214.39
2018-12-26T01:23:13.871Z,100214.23
2018-12-26T01:25:43.444Z,100217.80
2018-12-26T01:28:13.097Z,100224.67
2018-12-26T01:30:42.701Z,100235.70
2018-12-26T01:33:12.281Z,100228.05
2018-12-26T01:35:41.879Z,100231.67
2018-12-26T01:38:11.501Z,100224.55
2018-12-26T01:40:41.072Z,100217.07
2018-12-26T01:43:10.672Z,100224.92
2018-12-26T01:45:59.162Z,100220.25
2018-12-26T01:48:28.807Z,100222.89
2018-12-26T01:50:58.427Z,100219.92
2018-12-26T01:53:28.060Z,100224.13
2018-12-26T01:55:57.615Z,100238.28
2018-12-26T01:58:27.539Z,100221.83
2018-12-26T02:00:57.200Z,100221.98
2018-12-26T02:03:27.174Z,100235.95
2018-12-26T02:05:56.740Z,100237.60
2018-12-26T02:08:26.399Z,100230.88
2018-12-26T02:10:56.041Z,100218.14
2018-12-26T02:13:25.592Z,100227.05
2018-12-26T02:15:55.127Z,100223.02
2018-12-26T02:18:24.700Z,100216.36
2018-12-26T02:20:54.387Z,100230.02
2018-12-26T02:23:23.922Z,100224.62
2018-12-26T02:25:53.490Z,100213.27
2018-12-26T02:28:23.077Z,100203.90
2018-12-26T02:30:52.738Z,100209.49
2018-12-26T02:33:22.323Z,100209.55
2018-12-26T02:38:27.548Z,100202.09
2018-12-26T02:40:57.119Z,100208.81
2018-12-26T02:43:26.795Z,100205.07
2018-12-26T02:45:56.372Z,100201.23
2018-12-26T02:48:26.082Z,100205.72
2018-12-26T02:51:14.643Z,100201.52
2018-12-26T02:54:23.417Z,100208.76
2018-12-26T02:56:53.086Z,100199.86
2018-12-26T02:59:41.641Z,100180.41
2018-12-26T03:02:11.195Z,100187.06
2018-12-26T03:04:40.856Z,100177.37
2018-12-26T03:07:29.306Z,100173.87
2018-12-26T03:09:58.954Z,100178.59
2018-12-26T03:12:28.588Z,100172.86
2018-12-26T03:14:58.220Z,100176.42
2018-12-26T03:17:27.785Z,100177.27
2018-12-26T03:19:57.374Z,100172.27
2018-12-26T03:22:26.980Z,100180.84
2018-12-26T03:24:56.588Z,100177.80
2018-12-26T03:27:26.170Z,100184.52
2018-12-26T03:29:55.721Z,100166.66
2018-12-26T03:32:25.305Z,100159.48
2018-12-26T03:34:55.061Z,100162.48
2018-12-26T03:37:24.627Z,100166.02
2018-12-26T03:43:28.470Z,100143.05
2018-12-26T03:48:53.786Z,100140.12
2018-12-26T03:51:42.197Z,100138.19
2018-12-26T03:54:11.753Z,100140.74
2018-12-26T03:56:41.353Z,100127.80
2018-12-26T03:59:11.297Z,100139.86
2018-12-26T04:01:40.900Z,100134.67
2018-12-26T04:04:10.452Z,100125.47
2018-12-26T04:06:40.064Z,100122.98
2018-12-26T04:09:28.851Z,100110.56
2018-12-26T04:11:58.412Z,100093.70
2018-12-26T04:14:28.047Z,100079.14
2018-12-26T04:16:57.698Z,100083.09
2018-12-26T04:19:27.389Z,100075.92
2018-12-26T04:21:57.008Z,100081.44
2018-12-26T04:24:26.604Z,100091.00
2018-12-26T04:26:56.534Z,100100.41
2018-12-26T04:29:26.101Z,100105.75
2018-12-26T04:31:55.728Z,100116.45
2018-12-26T04:34:44.347Z,100107.01
2018-12-26T04:37:13.892Z,100118.41
2018-12-26T04:39:43.496Z,100112.03
2018-12-26T04:42:13.058Z,100118.96
2018-12-26T04:44:42.581Z,100119.55
2018-12-26T04:47:12.162Z,100113.60
2018-12-26T04:49:41.796Z,100111.24
2018-12-26T04:52:11.400Z,100118.84
2018-12-26T04:54:40.957Z,100117.59
2018-12-26T04:57:10.529Z,100109.86
2018-12-26T04:59:40.066Z,100118.10
2018-12-26T05:02:09.630Z,100113.94
2018-12-26T05:04:58.073Z,100114.58
2018-12-26T05:07:27.687Z,100115.53
2018-12-26T05:09:57.260Z,100117.95
2018-12-26T05:12:26.872Z,100116.17
2018-12-26T05:14:56.489Z,100115.21
2018-12-26T05:17:26.047Z,100116.75
2018-12-26T05:19:55.647Z,100114.80
2018-12-26T05:22:44.116Z,100117.20
2018-12-26T05:25:13.765Z,100113.99
2018-12-26T05:27:43.359Z,100120.81
2018-12-26T05:30:12.962Z,100126.94
2018-12-26T05:32:42.515Z,100126.82
2018-12-26T05:35:12.106Z,100125.28
2018-12-26T05:37:41.712Z,100118.41
2018-12-26T05:40:11.366Z,100118.63
2018-12-26T05:42:41.024Z,100115.70
2018-12-26T05:45:10.632Z,100120.91
2018-12-26T05:47:40.515Z,100122.30
2018-12-26T05:50:10.199Z,100114.91
2018-12-26T05:52:39.762Z,100112.96
2018-12-26T05:55:09.387Z,100120.98
2018-12-26T05:57:42.928Z,100120.33
2018-12-26T06:00:29.178Z,100117.75
2018-12-26T06:02:58.909Z,100117.87
2018-12-26T06:05:28.509Z,100109.91
2018-12-26T06:07:58.063Z,100121.02
2018-12-26T06:10:27.691Z,100105.89
2018-12-26T06:12:57.241Z,100113.23
2018-12-26T06:15:26.959Z,100120.62
2018-12-26T06:17:56.506Z,100116.72
2018-12-26T06:20:45.235Z,100113.36
2018-12-26T06:23:14.853Z,100112.82
2018-12-26T06:25:44.499Z,100111.91
2018-12-26T06:28:14.078Z,100114.66
2018-12-26T06:30:43.675Z,100110.19
2018-12-26T06:33:13.642Z,100104.02
2018-12-26T06:35:43.288Z,100105.11
2018-12-26T06:38:12.854Z,100117.83
2018-12-26T06:40:42.537Z,100121.33
2018-12-26T06:43:12.199Z,100108.33
2018-12-26T06:45:41.767Z,100102.42
2018-12-26T06:48:11.383Z,100092.39
2018-12-26T06:50:40.993Z,100095.75
2018-12-26T06:53:10.610Z,100099.70
2018-12-26T06:55:58.962Z,100109.96
2018-12-26T07:01:17.050Z,100116.72
2018-12-26T07:03:46.890Z,100119.34
2018-12-26T07:06:16.427Z,100117.30
2018-12-26T07:08:46.002Z,100127.77
2018-12-26T07:16:39.012Z,100126.54
2018-12-26T07:19:08.619Z,100126.76
2018-12-26T07:21:38.167Z,100128.61
2018-12-26T07:24:26.738Z,100129.08
2018-12-26T07:26:56.338Z,100134.36
2018-12-26T07:29:25.978Z,100135.41
2018-12-26T07:31:55.580Z,100137.00
2018-12-26T07:34:25.250Z,100144.02
2018-12-26T07:36:54.844Z,100141.45
2018-12-26T07:39:24.513Z,100135.62
2018-12-26T07:41:54.086Z,100140.89
2018-12-26T07:44:23.650Z,100142.75
2018-12-26T07:46:53.237Z,100138.86
2018-12-26T07:49:22.820Z,100134.56
2018-12-26T07:51:52.433Z,100137.70
2018-12-26T07:54:22.214Z,100142.52
2018-12-26T07:56:51.955Z,100141.59
2018-12-26T07:59:21.616Z,100141.22
2018-12-26T08:01:51.528Z,100156.58
2018-12-26T08:04:21.220Z,100156.98
2018-12-26T08:06:50.845Z,100154.88
2018-12-26T08:09:20.591Z,100163.69
2018-12-26T08:12:09.520Z,100161.00
2018-12-26T08:14:39.061Z,100163.98
2018-12-26T08:17:08.639Z,100161.51
2018-12-26T08:19:38.463Z,100153.72
2018-12-26T08:22:08.115Z,100147.88
2018-12-26T08:24:37.802Z,100145.06
2018-12-26T08:27:07.479Z,100143.59
2018-12-26T08:29:37.128Z,100143.63
2018-12-26T08:32:06.849Z,100147.23
2018-12-26T08:34:55.271Z,100151.44
2018-12-26T08:37:24.807Z,100148.59
2018-12-26T08:39:54.393Z,100153.77
2018-12-26T08:42:35.267Z,100149.70
2018-12-26T08:47:40.250Z,100146.78
2018-12-26T08:50:28.840Z,100151.94
2018-12-26T08:53:17.333Z,100145.57
2018-12-26T08:55:46.936Z,100157.36
2018-12-26T08:58:35.557Z,100149.05
2018-12-26T09:01:24.148Z,100148.38
2018-12-26T09:03:53.691Z,100160.27
2018-12-26T09:06:23.325Z,100155.95
2018-12-26T09:08:53.371Z,100161.97
2018-12-26T09:11:22.943Z,100160.53
2018-12-26T09:14:11.548Z,100166.98
2018-12-26T09:16:41.171Z,100169.67
2018-12-26T09:19:10.880Z,100168.98
2018-12-26T09:21:40.548Z,100169.51
2018-12-26T09:24:29.192Z,100165.44
2018-12-26T09:27:17.826Z,100169.42
2018-12-26T09:29:47.551Z,100163.88
2018-12-26T09:32:36.098Z,100167.64
2018-12-26T09:35:24.703Z,100166.36
2018-12-26T09:38:13.835Z,100164.03
2018-12-26T09:40:44.003Z,100160.38
2018-12-26T09:43:13.493Z,100160.98
2018-12-26T09:45:43.091Z,100152.44
2018-12-26T09:48:12.871Z,100155.02
2018-12-26T09:50:42.524Z,100144.84
2018-12-26T09:58:36.390Z,100143.95
2018-12-26T10:01:06.047Z,100154.33
2018-12-26T10:03:35.662Z,100142.71
2018-12-26T10:06:12.552Z,100151.02
2018-12-26T10:08:53.523Z,100152.20
2018-12-26T10:11:23.262Z,100148.59
2018-12-26T10:13:53.132Z,100148.67
2018-12-26T10:16:22.805Z,100147.29
2018-12-26T10:18:52.537Z,100138.86
2018-12-26T10:21:22.191Z,100141.33
2018-12-26T10:23:51.792Z,100141.73
2018-12-26T10:26:21.489Z,100139.67
2018-12-26T10:28:51.033Z,100143.00
2018-12-26T10:31:20.797Z,100135.41
2018-12-26T10:33:50.391Z,100137.56
2018-12-26T10:36:19.931Z,100142.27
2018-12-26T10:38:49.524Z,100140.91
2018-12-26T10:41:19.399Z,100141.80
2018-12-26T10:43:49.078Z,100141.91
2018-12-26T10:46:18.680Z,100141.77
2018-12-26T10:48:48.345Z,100139.39
2018-12-26T10:51:17.902Z,100136.86
2018-12-26T10:53:47.533Z,100136.22
2018-12-26T10:56:17.785Z,100134.00
2018-12-26T11:01:22.782Z,100134.63
2018-12-26T11:03:52.492Z,100123.15
2018-12-26T11:06:22.087Z,100126.72
2018-12-26T11:11:34.322Z,100113.68
2018-12-26T11:14:03.871Z,100106.66
2018-12-26T11:16:33.494Z,100099.50
2018-12-26T11:19:42.288Z,100096.30
2018-12-26T11:22:30.834Z,100112.04
2018-12-26T11:25:00.376Z,100107.29
2018-12-26T11:27:29.911Z,100104.94
2018-12-26T11:29:59.568Z,100105.73
2018-12-26T11:32:29.117Z,100104.43
2018-12-26T11:34:58.779Z,100101.59
2018-12-26T11:37:28.315Z,100096.58
2018-12-26T11:39:57.929Z,100094.16
2018-12-26T11:42:27.516Z,100095.59
2018-12-26T11:44:57.114Z,100092.89
2018-12-26T11:47:26.660Z,100095.30
2018-12-26T11:49:57.059Z,100097.72
2018-12-26T11:52:26.652Z,100100.23
2018-12-26T11:54:56.257Z,100100.47
2018-12-26T11:57:25.831Z,100107.50
2018-12-26T11:59:55.418Z,100107.47
2018-12-26T12:02:24.972Z,100104.06
2018-12-26T12:04:54.588Z,100107.01
2018-12-26T12:07:24.147Z,100101.09
2018-12-26T12:09:54.048Z,100102.19
2018-12-26T12:12:23.603Z,100098.77
2018-12-26T12:17:46.816Z,100110.66
2018-12-26T12:20:16.518Z,100105.66
2018-12-26T12:22:46.085Z,100111.52
2018-12-26T12:25:15.701Z,100115.07
2018-12-26T12:28:04.145Z,100113.44
2018-12-26T12:30:52.714Z,100121.08
2018-12-26T12:33:22.315Z,100116.27
2018-12-26T12:35:51.847Z,100122.52
2018-12-26T12:38:21.392Z,100117.98
2018-12-26T12:40:50.965Z,100119.25
2018-12-26T12:43:20.993Z,100114.22
2018-12-26T12:46:09.594Z,100115.59
2018-12-26T12:48:58.778Z,100108.30
2018-12-26T12:51:28.383Z,100112.13
2018-12-26T12:53:58.116Z,100108.10
2018-12-26T12:56:27.774Z,100111.00
2018-12-26T12:59:08.852Z,100112.37
2018-12-26T13:01:38.648Z,100110.59
2018-12-26T13:04:08.335Z,100113.28
2018-12-26T13:06:38.051Z,100116.59
2018-12-26T13:09:08.637Z,100110.31
2018-12-26T13:11:38.243Z,100112.64
2018-12-26T13:14:07.816Z,100112.06
2018-12-26T13:16:37.489Z,100114.77
2018-12-26T13:19:07.163Z,100116.59
2018-12-26T13:21:36.786Z,100112.39
2018-12-26T13:24:06.338Z,100114.20
2018-12-26T13:26:35.933Z,100108.80
2018-12-26T13:29:05.501Z,100112.92
2018-12-26T13:31:35.163Z,100112.31
2018-12-26T13:34:04.853Z,100110.65
2018-12-26T13:36:34.414Z,100105.19
2018-12-26T13:41:59.175Z,100104.13
2018-12-26T13:44:28.737Z,100110.84
2018-12-26T13:46:58.322Z,100103.67
2018-12-26T13:49:28.058Z,100103.86
2018-12-26T13:51:57.679Z,100106.26
2018-12-26T13:54:27.339Z,100103.41
2018-12-26T13:56:57.062Z,100100.63
2018-12-26T13:59:26.791Z,100105.27
2018-12-26T14:01:56.602Z,100100.84
2018-12-26T14:04:26.340Z,100104.72
2018-12-26T14:06:56.001Z,100102.16
2018-12-26T14:09:25.747Z,100095.76
2018-12-26T14:11:55.347Z,100093.44
2018-12-26T14:14:25.056Z,100096.55
2018-12-26T14:16:54.717Z,100091.27
2018-12-26T14:19:24.325Z,100092.72
2018-12-26T14:22:13.363Z,100093.39
2018-12-26T14:24:42.896Z,100093.43
2018-12-26T14:27:12.519Z,100091.58
2018-12-26T14:29:42.609Z,100094.75
2018-12-26T14:34:48.103Z,100098.95
2018-12-26T14:37:17.711Z,100093.20
2018-12-26T14:39:47.393Z,100094.52
2018-12-26T14:42:17.072Z,100096.30
2018-12-26T14:44:46.650Z,100095.13
2018-12-26T14:47:16.342Z,100096.97
2018-12-26T14:50:04.912Z,100098.05
2018-12-26T14:52:34.564Z,100101.81
2018-12-26T14:55:04.198Z,100096.70
2018-12-26T14:57:52.721Z,100091.16
2018-12-26T15:00:22.293Z,100100.33
2018-12-26T15:03:10.749Z,100096.83
2018-12-26T15:05:40.334Z,100096.91
2018-12-26T15:08:09.888Z,100094.03
2018-12-26T15:10:39.494Z,100095.75
2018-12-26T15:13:09.138Z,100094.52
2018-12-26T15:15:39.128Z,100096.67
2018-12-26T15:18:08.765Z,100097.69
2018-12-26T15:20:38.488Z,100092.18
2018-12-26T15:23:08.590Z,100085.55
2018-12-26T15:25:38.136Z,100094.66
2018-12-26T15:28:07.673Z,100088.32
2018-12-26T15:30:37.280Z,100090.86
2018-12-26T15:33:06.928Z,100096.47
2018-12-26T15:35:36.531Z,100092.02
2018-12-26T15:38:06.105Z,100095.58
2018-12-26T15:40:35.911Z,100089.14
2018-12-26T15:43:05.532Z,100093.70
2018-12-26T15:45:35.126Z,100092.17
2018-12-26T15:48:04.697Z,100094.19
2018-12-26T15:50:45.808Z,100096.70
2018-12-26T15:53:15.390Z,100095.84
2018-12-26T15:55:44.954Z,100103.27
2018-12-26T15:58:14.677Z,100098.52
2018-12-26T16:00:44.560Z,100095.14
2018-12-26T16:03:14.213Z,100093.43
2018-12-26T16:05:43.796Z,100097.22
2018-12-26T16:08:13.376Z,100097.73
2018-12-26T16:10:43.013Z,100091.41
2018-12-26T16:15:47.718Z,100091.61
2018-12-26T16:18:17.261Z,100089.89
2018-12-26T16:20:46.909Z,100092.30
2018-12-26T16:23:16.500Z,100084.98
2018-12-26T16:25:46.118Z,100084.27
2018-12-26T16:28:15.664Z,100086.38
2018-12-26T16:30:46.322Z,100085.78
2018-12-26T16:33:16.829Z,100089.60
2018-12-26T16:35:46.597Z,100091.98
2018-12-26T16:38:16.220Z,100085.78
2018-12-26T16:40:45.945Z,100084.19
2018-12-26T16:43:15.548Z,100088.55
2018-12-26T16:45:45.219Z,100085.38
2018-12-26T16:48:14.890Z,100089.91
2018-12-26T16:50:44.696Z,100087.13
2018-12-26T16:53:14.307Z,100088.98
2018-12-26T16:55:43.877Z,100085.88
2018-12-26T16:58:13.591Z,100089.70
2018-12-26T17:03:31.853Z,100089.34
2018-12-26T17:06:01.417Z,100083.45
2018-12-26T17:08:31.062Z,100084.41
2018-12-26T17:11:00.632Z,100092.44
2018-12-26T17:13:30.219Z,100090.27
2018-12-26T17:15:59.860Z,100092.63
2018-12-26T17:18:29.655Z,100087.28
2018-12-26T17:20:59.421Z,100094.52
2018-12-26T17:23:29.028Z,100098.75
2018-12-26T17:25:58.578Z,100095.47
2018-12-26T17:28:47.231Z,100100.73
2018-12-26T17:31:16.811Z,100108.88
2018-12-26T17:33:46.567Z,100103.39
2018-12-26T17:36:16.172Z,100100.63
2018-12-26T17:38:45.803Z,100106.13
2018-12-26T17:41:15.462Z,100099.97
2018-12-26T17:43:45.051Z,100106.41
2018-12-26T17:46:33.633Z,100107.92
2018-12-26T17:49:03.242Z,100102.73
2018-12-26T17:51:33.366Z,100106.66
2018-12-26T17:54:14.253Z,100103.77
2018-12-26T17:57:21.684Z,100107.86
2018-12-26T18:00:22.805Z,100102.58
2018-12-26T18:02:52.349Z,100104.06
2018-12-26T18:05:21.987Z,100106.27
2018-12-26T18:10:40.161Z,100105.58
2018-12-26T18:13:09.763Z,100106.09
2018-12-26T18:15:39.517Z,100104.42
2018-12-26T18:18:09.098Z,100104.95
2018-12-26T18:20:57.674Z,100108.72
2018-12-26T18:23:27.260Z,100112.41
2018-12-26T18:25:56.954Z,100107.53
2018-12-26T18:28:26.543Z,100105.25
2018-12-26T18:30:56.167Z,100102.14
2018-12-26T18:33:44.798Z,100105.64
2018-12-26T18:36:14.671Z,100111.48
2018-12-26T18:38:44.615Z,100104.88
2018-12-26T18:41:14.606Z,100106.57
2018-12-26T18:43:44.172Z,100109.73
2018-12-26T18:46:14.042Z,100110.80
2018-12-26T18:48:45.133Z,100111.88
2018-12-26T18:51:14.736Z,100110.89
2018-12-26T18:56:19.411Z,100101.95
2018-12-26T18:58:48.985Z,100107.98
2018-12-26T19:01:37.758Z,100103.89
2018-12-26T19:04:26.329Z,100112.11
2018-12-26T19:07:14.991Z,100112.97
2018-12-26T19:15:15.426Z,100110.73
2018-12-26T19:20:52.471Z,100110.23
2018-12-26T19:23:22.124Z,100113.20
2018-12-26T19:26:10.802Z,100103.56
2018-12-26T19:28:40.473Z,100110.70
2018-12-26T19:31:10.064Z,100103.80
2018-12-26T19:33:39.851Z,100108.58
2018-12-26T19:36:09.938Z,100105.61
2018-12-26T19:38:39.493Z,100104.03
2018-12-26T19:41:09.033Z,100103.77
2018-12-26T19:43:39.116Z,100106.20
2018-12-26T19:46:08.669Z,100107.33
2018-12-26T19:48:38.249Z,100101.81
2018-12-26T19:51:26.806Z,100104.16
2018-12-26T19:54:15.639Z,100102.05
2018-12-26T19:56:45.731Z,100099.54
2018-12-26T19:59:15.575Z,100098.61
2018-12-26T20:01:48.242Z,100087.98
2018-12-26T20:04:17.011Z,100083.00
2018-12-26T20:06:46.801Z,100085.84
2018-12-26T20:09:16.483Z,100084.16
2018-12-26T20:11:46.171Z,100089.27
2018-12-26T20:14:34.864Z,100083.45
2018-12-26T20:17:44.054Z,100074.69
2018-12-26T20:20:13.747Z,100075.65
2018-12-26T20:25:18.878Z,100073.34
2018-12-26T20:27:48.599Z,100065.84
2018-12-26T20:30:18.431Z,100069.70
2018-12-26T20:32:48.196Z,100064.13
2018-12-26T20:35:17.980Z,100061.28
2018-12-26T20:37:47.576Z,100057.13
2018-12-26T20:40:17.295Z,100051.09
2018-12-26T20:42:46.943Z,100052.64
2018-12-26T20:45:16.685Z,100046.89
2018-12-26T20:47:46.364Z,100046.96
2018-12-26T20:50:34.946Z,100046.83
2018-12-26T20:53:04.569Z,100041.09
2018-12-26T20:55:34.196Z,100041.60
2018-12-26T20:58:03.770Z,100037.77
2018-12-26T21:00:33.355Z,100040.41
2018-12-26T21:03:02.913Z,100033.42
2018-12-26T21:05:32.776Z,100031.89
2018-12-26T21:08:02.378Z,100034.34
2018-12-26T21:10:31.985Z,100030.63
2018-12-26T21:13:01.557Z,100026.17
2018-12-26T21:15:31.605Z,100029.59
2018-12-26T21:18:01.170Z,100021.14
2018-12-26T21:20:30.742Z,100023.66
2018-12-26T21:23:19.327Z,100024.70
2018-12-26T21:25:48.972Z,100013.00
2018-12-26T21:28:40.853Z,100018.70
2018-12-26T21:31:10.433Z,100023.41
2018-12-26T21:33:40.135Z,100018.88
2018-12-26T21:36:10.155Z,100019.02
2018-12-26T21:38:39.718Z,100012.02
2018-12-26T21:41:09.441Z,100021.73
2018-12-26T21:43:38.977Z,100016.45
2018-12-26T21:46:08.676Z,100017.63
2018-12-26T21:51:27.117Z,100018.81
2018-12-26T21:54:15.673Z,100014.67
2018-12-26T21:57:04.170Z,100021.64
2018-12-26T21:59:52.654Z,100019.74
2018-12-26T22:02:41.592Z,100016.89
2018-12-26T22:05:30.093Z,100020.20
2018-12-26T22:08:18.512Z,100017.28
2018-12-26T22:11:07.007Z,100019.95
2018-12-26T22:13:55.500Z,100019.39
2018-12-26T22:16:43.978Z,100015.17
2018-12-26T22:19:32.419Z,100014.25
2018-12-26T22:22:20.842Z,100016.10
2018-12-26T22:25:09.284Z,100008.96
2018-12-26T22:27:57.790Z,100006.10
2018-12-26T22:30:46.299Z,100008.35
2018-12-26T22:33:34.767Z,100011.59
2018-12-26T22:36:23.221Z,100007.57
2018-12-26T22:39:11.679Z,100007.50
2018-12-26T22:42:00.197Z,100008.28
2018-12-26T22:44:49.107Z,100004.20
2018-12-26T22:47:37.465Z,99996.53
2018-12-26T22:50:27.407Z,99992.17
2018-12-26T22:53:16.241Z,99987.96
2018-12-26T22:56:04.731Z,99984.64
2018-12-26T22:58:53.305Z,99976.70
2018-12-26T23:04:11.408Z,99974.02
2018-12-26T23:06:59.901Z,99972.12
2018-12-26T23:09:48.302Z,99962.94
2018-12-26T23:12:36.800Z,99963.42
2018-12-26T23:15:07.083Z,99963.45
2018-12-26T23:17:55.630Z,99955.88
2018-12-26T23:20:44.086Z,99950.50
2018-12-26T23:23:32.588Z,99951.51
2018-12-26T23:26:21.179Z,99954.80
2018-12-26T23:29:09.512Z,99954.32
2018-12-26T23:31:57.999Z,99960.44
2018-12-26T23:34:46.520Z,99963.98
2018-12-26T23:37:35.023Z,99958.58
2018-12-26T23:40:23.500Z,99947.02
2018-12-26T23:43:11.942Z,99956.13
2018-12-26T23:46:00.567Z,99948.79
2018-12-26T23:48:49.009Z,99951.69
2018-12-26T23:51:37.527Z,99950.67
2018-12-26T23:54:26.017Z,99945.46
2018-12-26T23:57:14.494Z,99943.60
